Terminal Aerodrome Forecast
Issued by NWS Wilmington, OH

Current Version | Previous Version | Graphics & Text | Print | Product List | Glossary On
Versions: 1 2 3 4 5 6 7 8 9 10 11 12 13 14 15 16 17 18 19 20 21 22 23
554
FTUS41 KILN 281137
TAFDAY
TAF
KDAY 281137Z 2812/2912 21008KT P6SM VCSH BKN100 OVC130
      TEMPO 2812/2816 5SM -SHRA BR OVC035
     FM281600 20005KT P6SM VCTS BKN040CB BKN150
     FM290000 23005KT P6SM BKN090
     FM290800 VRB02KT 3SM BR BKN150=

USA.gov is the U.S. government's official web portal to all federal, state and local government web resources and services.